Time;durP1;ratioP1;P1;durP2;ratioP2;P2;SDS_P1;SDS_P2;PMS_P1;PMS_P2;Temp;Humidity;BMP_temperature;BMP_pressure;BME280_temperature;BME280_humidity;BME280_pressure;Samples;Min_cycle;Max_cycle;Signal;HPM_P1;HPM_P2
2021/12/06 00:01:10;;;;;;;55.63;26.03;;;;;;;4.39;100.00;94104.75;5100049;28;20201;-69
2021/12/06 00:03:43;;;;;;;56.38;26.05;;;;;;;4.54;99.21;94095.13;5100632;28;20907;-69
2021/12/06 00:06:13;;;;;;;59.47;29.75;;;;;;;4.44;98.66;94102.13;5099909;28;20204;-69
2021/12/06 00:08:40;;;;;;;55.05;28.92;;;;;;;4.39;98.99;94098.88;5099612;28;20572;-68
2021/12/06 00:11:09;;;;;;;57.13;28.40;;;;;;;4.12;98.92;94105.41;5099101;28;20205;-68
2021/12/06 00:13:37;;;;;;;55.87;27.53;;;;;;;4.13;99.68;94103.72;5100518;28;20193;-69
2021/12/06 00:16:08;;;;;;;57.13;28.70;;;;;;;4.33;99.35;94091.47;5099597;28;20201;-69
2021/12/06 00:18:35;;;;;;;52.08;26.42;;;;;;;4.30;98.45;94096.59;5100257;28;20193;-68
2021/12/06 00:21:03;;;;;;;50.80;25.47;;;;;;;3.99;99.31;94096.50;5099198;28;20246;-68
2021/12/06 00:23:32;;;;;;;47.80;25.50;;;;;;;4.28;99.39;94091.59;5099282;28;20249;-69
2021/12/06 00:25:59;;;;;;;48.08;24.35;;;;;;;4.22;98.29;94094.25;5100172;28;20209;-69
2021/12/06 00:28:26;;;;;;;56.87;25.13;;;;;;;4.18;98.16;94122.06;5099073;28;20200;-69
2021/12/06 00:30:53;;;;;;;44.90;23.10;;;;;;;4.05;99.00;94139.91;5100259;28;20679;-69
2021/12/06 00:33:20;;;;;;;51.22;25.23;;;;;;;4.10;99.19;94139.81;5099482;28;20705;-69
2021/12/06 00:35:47;;;;;;;42.23;21.97;;;;;;;4.03;99.42;94149.19;5100227;28;20205;-70
2021/12/06 00:38:13;;;;;;;45.57;24.57;;;;;;;3.88;99.58;94139.50;5097958;28;20229;-69
2021/12/06 00:40:45;;;;;;;46.95;23.17;;;;;;;4.08;99.56;94137.34;5099978;28;20253;-69
2021/12/06 00:43:13;;;;;;;46.03;23.23;;;;;;;3.91;99.12;94134.41;5099032;28;20337;-69
2021/12/06 00:45:40;;;;;;;44.93;22.10;;;;;;;4.06;98.95;94123.97;5099156;28;20197;-69
2021/12/06 00:48:07;;;;;;;42.35;22.17;;;;;;;3.99;99.27;94142.56;5100054;28;20201;-69
2021/12/06 00:50:38;;;;;;;44.37;23.17;;;;;;;3.90;99.57;94136.94;5098653;28;20209;-69
2021/12/06 00:53:05;;;;;;;45.90;21.48;;;;;;;3.98;100.00;94150.97;5100091;28;20205;-69
2021/12/06 00:55:33;;;;;;;38.60;18.43;;;;;;;4.14;100.00;94140.56;5098737;28;20621;-69
2021/12/06 00:58:01;;;;;;;42.03;20.73;;;;;;;4.39;98.58;94136.63;5100118;28;20237;-69
2021/12/06 01:00:34;;;;;;;45.03;21.80;;;;;;;4.08;99.37;94112.19;5098854;28;20281;-70
2021/12/06 01:03:02;;;;;;;39.23;21.13;;;;;;;4.44;99.58;94124.75;5099572;28;20701;-69
2021/12/06 01:05:29;;;;;;;39.87;18.90;;;;;;;4.69;98.23;94110.69;5100337;28;20288;-70
2021/12/06 01:07:56;;;;;;;32.20;16.33;;;;;;;4.52;99.18;94117.81;5098764;28;20221;-69
2021/12/06 01:10:24;;;;;;;27.20;15.80;;;;;;;4.61;99.77;94117.59;5099786;28;20254;-69
2021/12/06 01:12:52;;;;;;;31.20;18.03;;;;;;;4.63;98.93;94120.91;5099139;28;20201;-69
2021/12/06 01:15:20;;;;;;;36.37;18.27;;;;;;;4.55;99.41;94124.47;5099929;28;20205;-69
2021/12/06 01:17:48;;;;;;;25.42;15.77;;;;;;;4.57;99.47;94112.66;5098245;28;20262;-70
2021/12/06 01:20:20;;;;;;;34.95;17.95;;;;;;;4.50;99.48;94117.03;5099889;28;20206;-69
2021/12/06 01:22:52;;;;;;;45.17;20.70;;;;;;;4.19;98.79;94113.66;5102754;28;21179;-69
2021/12/06 01:25:29;;;;;;;42.83;20.00;;;;;;;4.36;99.57;94109.00;5103875;28;21196;-69
2021/12/06 01:31:03;;;;;;;36.65;19.00;;;;;;;4.19;99.23;94108.63;5040528;28;21139;-69
2021/12/06 01:39:15;;;;;;;36.87;18.27;;;;;;;4.52;97.02;94097.69;5103372;28;20793;-69
2021/12/06 01:41:48;;;;;;;32.70;17.30;;;;;;;4.35;96.31;94100.66;5102221;28;20201;-69
2021/12/06 01:44:16;;;;;;;37.30;17.53;;;;;;;4.21;97.15;94086.75;5103239;28;20244;-69
2021/12/06 01:46:48;;;;;;;36.70;18.03;;;;;;;4.22;97.65;94085.88;5103236;28;20827;-69
2021/12/06 01:49:16;;;;;;;35.67;18.70;;;;;;;4.21;97.43;94095.13;5102393;28;20262;-69
2021/12/06 01:51:44;;;;;;;33.43;18.00;;;;;;;4.29;97.46;94079.84;5101878;28;20201;-69
2021/12/06 01:54:11;;;;;;;29.02;18.23;;;;;;;4.31;96.97;94068.88;5103193;28;20197;-69
2021/12/06 01:56:38;;;;;;;31.30;17.67;;;;;;;4.37;96.83;94072.94;5101888;28;20201;-69
2021/12/06 01:59:07;;;;;;;37.63;19.17;;;;;;;4.36;96.77;94074.63;5102877;28;20201;-69
2021/12/06 02:01:34;;;;;;;36.17;18.20;;;;;;;4.14;96.90;94075.22;5101789;28;20200;-69
2021/12/06 02:04:03;;;;;;;32.33;17.27;;;;;;;4.07;97.76;94064.47;5101669;28;20702;-69
2021/12/06 02:06:31;;;;;;;32.30;18.27;;;;;;;3.93;98.34;94069.03;5103124;28;20262;-69
2021/12/06 02:08:58;;;;;;;37.00;18.37;;;;;;;4.06;98.28;94071.19;5101663;28;20217;-69
2021/12/06 02:11:27;;;;;;;40.33;18.83;;;;;;;3.92;99.06;94062.34;5102011;28;20618;-70
2021/12/06 02:14:02;;;;;;;30.87;17.53;;;;;;;4.03;99.32;94048.63;5103142;28;20195;-69
2021/12/06 02:16:38;;;;;;;33.77;17.87;;;;;;;4.18;98.12;94059.19;5103122;28;20284;-69
2021/12/06 02:19:06;;;;;;;38.28;18.80;;;;;;;4.17;97.67;94080.16;5101920;28;20196;-69
2021/12/06 02:21:39;;;;;;;31.10;17.90;;;;;;;4.06;98.35;94077.91;5101688;28;20189;-69
2021/12/06 02:24:09;;;;;;;32.57;17.70;;;;;;;3.80;99.17;94070.97;5102678;28;20270;-69
2021/12/06 02:26:37;;;;;;;33.63;17.35;;;;;;;3.80;99.98;94070.97;5102233;28;20682;-69
2021/12/06 02:29:04;;;;;;;29.17;16.30;;;;;;;4.04;99.35;94079.63;5101205;28;20205;-69
2021/12/06 02:31:31;;;;;;;40.55;17.48;;;;;;;3.87;98.48;94080.03;5102206;28;20193;-69
2021/12/06 02:33:58;;;;;;;31.58;17.33;;;;;;;3.83;98.90;94050.81;5101075;28;20189;-69
2021/12/06 02:36:26;;;;;;;35.23;17.47;;;;;;;3.88;98.86;94065.78;5102432;28;20668;-69
2021/12/06 02:38:55;;;;;;;31.63;17.80;;;;;;;4.07;99.08;94079.56;5100509;28;20795;-70
2021/12/06 02:41:23;;;;;;;37.57;20.47;;;;;;;3.79;99.57;94060.97;5101324;28;20220;-69
2021/12/06 02:43:51;;;;;;;40.33;21.38;;;;;;;3.88;100.00;94061.59;5102723;28;20220;-69
2021/12/06 02:46:18;;;;;;;37.08;20.40;;;;;;;4.14;99.44;94055.09;5102132;28;20261;-69
2021/12/06 02:48:45;;;;;;;42.22;19.85;;;;;;;4.04;98.96;94060.34;5101392;28;20242;-69
2021/12/06 02:51:15;;;;;;;32.63;18.58;;;;;;;4.07;98.76;94056.94;5100790;28;20193;-69
2021/12/06 02:53:41;;;;;;;35.53;19.43;;;;;;;4.06;98.91;94053.59;5102041;28;20189;-69
2021/12/06 02:56:29;;;;;;;38.33;18.23;;;;;;;4.02;99.87;94072.13;5100752;28;20320;-69
2021/12/06 02:58:56;;;;;;;43.80;21.75;;;;;;;4.02;100.00;94072.13;5101720;28;20656;-68
2021/12/06 03:01:32;;;;;;;43.80;23.25;;;;;;;4.23;100.00;94067.41;5101239;28;20205;-69
2021/12/06 03:04:00;;;;;;;36.35;20.02;;;;;;;4.56;98.51;94063.22;5101532;28;20888;-68
2021/12/06 03:06:28;;;;;;;41.10;21.33;;;;;;;4.63;97.03;94055.47;5100989;28;20201;-68
2021/12/06 03:09:04;;;;;;;43.53;20.45;;;;;;;4.60;96.94;94058.06;5100338;28;20306;-68
2021/12/06 03:11:35;;;;;;;34.90;17.67;;;;;;;4.58;96.90;94052.25;5101999;28;20404;-68
2021/12/06 03:14:02;;;;;;;37.25;21.30;;;;;;;4.95;95.66;94063.84;5101020;28;20205;-68
2021/12/06 03:16:29;;;;;;;37.30;20.60;;;;;;;4.88;94.41;94050.59;5100593;28;20258;-69
2021/12/06 03:18:57;;;;;;;37.50;19.63;;;;;;;4.68;95.63;94053.66;5101289;28;20254;-69
2021/12/06 03:21:25;;;;;;;39.70;20.02;;;;;;;4.66;96.36;94049.53;5100403;28;20208;-69
2021/12/06 03:23:54;;;;;;;37.20;19.92;;;;;;;4.77;96.47;94050.06;5101408;28;20887;-69
2021/12/06 03:26:21;;;;;;;37.53;20.35;;;;;;;4.86;96.04;94059.06;5100118;28;20851;-69
2021/12/06 03:28:50;;;;;;;40.97;20.80;;;;;;;4.68;96.32;94057.88;5100414;28;20201;-69
2021/12/06 03:31:18;;;;;;;42.30;22.25;;;;;;;4.26;98.36;94049.75;5101693;28;20213;-69
2021/12/06 03:33:47;;;;;;;38.85;20.35;;;;;;;4.24;100.00;94051.47;5099993;28;20675;-69
2021/12/06 03:36:17;;;;;;;38.28;20.08;;;;;;;4.49;99.99;94046.63;5101111;28;20262;-69
2021/12/06 03:38:44;;;;;;;43.60;23.10;;;;;;;4.24;99.90;94051.47;5100624;28;20282;-69
2021/12/06 03:41:14;;;;;;;51.92;23.70;;;;;;;4.24;100.00;94036.38;5100572;28;20209;-69
2021/12/06 03:43:41;;;;;;;37.83;20.93;;;;;;;4.67;99.13;94039.44;5099252;28;20236;-69
2021/12/06 03:46:12;;;;;;;42.60;23.60;;;;;;;4.88;96.32;94044.75;5100972;28;20713;-69
2021/12/06 03:48:39;;;;;;;42.00;21.73;;;;;;;5.05;96.41;94047.59;5100647;28;20204;-69
2021/12/06 03:51:06;;;;;;;39.07;20.77;;;;;;;4.90;96.26;94056.41;5099510;28;20254;-70
2021/12/06 03:53:34;;;;;;;42.33;22.08;;;;;;;4.84;97.01;94049.03;5099840;28;20205;-70
2021/12/06 03:56:01;;;;;;;43.20;21.67;;;;;;;4.84;97.71;94048.19;5100771;28;20209;-70
2021/12/06 03:58:28;;;;;;;41.13;20.83;;;;;;;4.79;97.55;94036.56;5099880;28;20209;-69
2021/12/06 04:00:55;;;;;;;40.08;21.05;;;;;;;4.87;98.14;94043.09;5099594;28;20205;-70
2021/12/06 04:03:27;;;;;;;37.08;20.88;;;;;;;4.91;97.98;94044.66;5100648;28;20229;-70
2021/12/06 04:05:55;;;;;;;37.90;22.13;;;;;;;5.01;97.52;94035.94;5099538;28;20377;-70
2021/12/06 04:08:21;;;;;;;41.25;22.38;;;;;;;5.11;96.89;94047.41;5100014;28;20228;-70
2021/12/06 04:10:49;;;;;;;34.95;19.42;;;;;;;5.20;95.84;94046.34;5099150;28;20189;-70
2021/12/06 04:13:17;;;;;;;41.55;20.80;;;;;;;4.95;95.88;94043.72;5100809;28;20209;-70
2021/12/06 04:15:46;;;;;;;39.38;21.13;;;;;;;5.02;96.94;94042.63;5097864;28;20232;-69
2021/12/06 04:18:13;;;;;;;31.48;19.10;;;;;;;5.19;96.02;94037.97;5100528;28;20667;-70
2021/12/06 04:20:42;;;;;;;47.53;21.70;;;;;;;5.26;95.56;94044.44;5100193;28;20767;-70
2021/12/06 04:23:12;;;;;;;32.63;18.02;;;;;;;5.29;95.66;94051.91;5098927;28;20232;-70
2021/12/06 04:25:39;;;;;;;29.80;17.53;;;;;;;5.29;95.58;94046.88;5100125;28;20209;-70
2021/12/06 04:28:07;;;;;;;36.92;21.70;;;;;;;5.11;95.94;94037.34;5099578;28;20193;-70
2021/12/06 04:30:37;;;;;;;34.78;19.20;;;;;;;5.21;96.16;94053.81;5100194;28;20193;-70
2021/12/06 04:33:04;;;;;;;39.78;20.23;;;;;;;5.00;96.73;94026.75;5100595;28;20295;-70
2021/12/06 04:35:32;;;;;;;33.97;19.45;;;;;;;4.99;97.58;94067.91;5099791;28;20203;-70
2021/12/06 04:38:00;;;;;;;33.35;18.83;;;;;;;4.97;98.54;94039.44;5099917;28;20646;-70
2021/12/06 04:40:28;;;;;;;38.30;20.17;;;;;;;5.03;98.35;94049.31;5100158;28;20597;-70
2021/12/06 04:42:55;;;;;;;53.77;27.63;;;;;;;4.98;99.58;94036.03;5098867;28;20308;-70
2021/12/06 04:45:22;;;;;;;31.20;17.40;;;;;;;5.15;99.29;94043.97;5099263;28;20213;-70
2021/12/06 04:47:50;;;;;;;27.05;16.42;;;;;;;5.38;98.30;94046.63;5099683;28;20269;-70
2021/12/06 04:50:19;;;;;;;30.95;18.40;;;;;;;5.31;97.96;94040.09;5099217;28;20285;-69
2021/12/06 04:52:48;;;;;;;47.53;23.10;;;;;;;5.33;98.40;94033.34;5100171;28;20254;-70
2021/12/06 04:55:26;;;;;;;30.50;19.27;;;;;;;5.52;97.45;94042.84;5101722;28;20229;-69
2021/12/06 04:57:54;;;;;;;33.42;17.70;;;;;;;5.53;96.52;94031.91;5102842;28;20278;-71
2021/12/06 05:00:27;;;;;;;32.13;17.92;;;;;;;5.51;97.61;94043.72;5103118;28;20264;-68
2021/12/06 05:02:54;;;;;;;35.47;18.60;;;;;;;5.67;95.34;94042.41;5102473;28;20245;-68
2021/12/06 05:05:24;;;;;;;30.35;17.77;;;;;;;5.50;96.89;94037.84;5103626;28;20465;-69
2021/12/06 05:07:55;;;;;;;30.60;18.13;;;;;;;5.34;97.72;94054.31;5103166;28;20549;-69
2021/12/06 05:10:23;;;;;;;42.90;19.80;;;;;;;5.14;98.99;94042.31;5102578;28;20273;-70
2021/12/06 05:12:51;;;;;;;41.63;21.92;;;;;;;5.22;98.71;94037.84;5103929;28;20266;-68
2021/12/06 05:15:18;;;;;;;34.78;19.00;;;;;;;5.30;99.01;94045.19;5102680;28;20200;-70
2021/12/06 05:17:45;;;;;;;29.90;17.73;;;;;;;5.50;96.64;94047.09;5104091;28;20201;-70
2021/12/06 05:20:13;;;;;;;38.05;19.95;;;;;;;5.33;97.13;94072.81;5103719;28;20208;-70
2021/12/06 05:22:41;;;;;;;36.40;20.42;;;;;;;5.00;99.01;94064.50;5102209;28;20185;-68
2021/12/06 05:25:09;;;;;;;36.70;18.85;;;;;;;5.22;99.03;94073.09;5102593;28;20274;-69
2021/12/06 05:27:38;;;;;;;32.67;19.08;;;;;;;5.44;97.37;94056.50;5101932;28;20510;-69
2021/12/06 05:30:09;;;;;;;35.97;18.98;;;;;;;5.51;96.80;94073.94;5103677;28;20687;-69
2021/12/06 05:32:37;;;;;;;33.13;18.60;;;;;;;5.57;96.07;94066.22;5103402;28;20246;-70
2021/12/06 05:35:07;;;;;;;33.42;19.40;;;;;;;5.36;96.82;94047.53;5102143;28;20197;-69
2021/12/06 05:37:35;;;;;;;33.70;17.07;;;;;;;5.31;97.85;94049.34;5102426;28;20225;-69
2021/12/06 05:40:03;;;;;;;25.88;16.63;;;;;;;5.20;98.35;94056.41;5103226;28;20209;-69
2021/12/06 05:42:30;;;;;;;34.00;16.37;;;;;;;5.14;99.54;94057.41;5102392;28;20201;-69
2021/12/06 05:44:58;;;;;;;32.77;16.93;;;;;;;5.24;99.38;94063.81;5102161;28;20212;-69
2021/12/06 05:47:25;;;;;;;28.67;16.83;;;;;;;5.22;99.57;94064.72;5102332;28;20205;-69
2021/12/06 05:49:52;;;;;;;25.95;16.02;;;;;;;5.28;99.93;94074.63;5101907;28;20193;-70
2021/12/06 05:52:19;;;;;;;30.20;16.67;;;;;;;5.31;100.00;94064.47;5103230;28;20192;-70
2021/12/06 05:54:46;;;;;;;30.80;16.30;;;;;;;5.18;100.00;94043.88;5102181;28;20254;-69
2021/12/06 05:57:14;;;;;;;30.88;16.67;;;;;;;5.21;100.00;94058.88;5103008;28;20581;-69
2021/12/06 05:59:42;;;;;;;29.43;15.23;;;;;;;5.09;100.00;94049.16;5103185;28;20223;-70
2021/12/06 06:02:11;;;;;;;32.50;16.90;;;;;;;5.10;100.00;94055.84;5101326;28;20258;-69
2021/12/06 06:04:39;;;;;;;27.33;16.27;;;;;;;5.05;100.00;94057.66;5102576;28;20236;-70
2021/12/06 06:07:06;;;;;;;32.05;16.50;;;;;;;4.94;100.00;94064.72;5100718;28;20934;-70
2021/12/06 06:09:33;;;;;;;24.70;14.63;;;;;;;5.10;100.00;94070.97;5103105;28;20655;-69
2021/12/06 06:12:02;;;;;;;29.17;17.30;;;;;;;5.21;100.00;94068.13;5101121;28;20212;-69
2021/12/06 06:14:29;;;;;;;22.97;15.77;;;;;;;5.24;100.00;94073.88;5102507;28;20648;-70
2021/12/06 06:17:03;;;;;;;27.20;14.32;;;;;;;5.29;100.00;94076.28;5101192;28;20237;-69
2021/12/06 06:19:31;;;;;;;26.88;16.60;;;;;;;5.46;100.00;94079.94;5102228;28;20212;-70
2021/12/06 06:21:58;;;;;;;23.92;13.75;;;;;;;5.43;100.00;94062.44;5101361;28;20258;-68
2021/12/06 06:24:24;;;;;;;22.27;14.15;;;;;;;5.36;100.00;94068.50;5102199;28;20654;-69
2021/12/06 06:26:51;;;;;;;25.10;15.38;;;;;;;5.53;100.00;94077.25;5102186;28;20201;-69
2021/12/06 06:29:18;;;;;;;21.70;13.52;;;;;;;5.78;99.55;94052.94;5101009;28;20768;-69
2021/12/06 06:31:45;;;;;;;19.58;12.98;;;;;;;6.03;98.18;94048.00;5101024;28;20215;-69
2021/12/06 06:34:13;;;;;;;22.00;13.50;;;;;;;6.44;96.42;94089.50;5102114;28;20258;-70
2021/12/06 06:36:41;;;;;;;21.55;12.98;;;;;;;6.26;96.03;94097.69;5101299;28;20201;-70
2021/12/06 06:39:10;;;;;;;16.48;11.25;;;;;;;6.07;96.51;94093.25;5102184;28;20331;-70
2021/12/06 06:41:37;;;;;;;19.85;12.00;;;;;;;5.72;98.45;94095.97;5102188;28;20236;-69
2021/12/06 06:44:05;;;;;;;17.48;11.48;;;;;;;5.69;99.15;94091.06;5101103;28;20261;-69
2021/12/06 06:46:32;;;;;;;19.85;11.82;;;;;;;5.67;99.71;94082.72;5101099;28;20208;-69
2021/12/06 06:48:59;;;;;;;19.45;11.48;;;;;;;5.76;99.38;94082.41;5100928;28;20205;-69
2021/12/06 06:51:27;;;;;;;18.42;12.18;;;;;;;6.16;99.30;94091.31;5102024;28;20204;-68
2021/12/06 06:53:56;;;;;;;16.73;11.27;;;;;;;6.71;95.21;94091.09;5101096;28;21902;-68
2021/12/06 06:56:23;;;;;;;15.73;11.38;;;;;;;6.50;95.62;94114.56;5101997;28;20631;-69
2021/12/06 06:58:51;;;;;;;17.27;11.63;;;;;;;6.35;95.89;94112.53;5100728;28;20209;-69
2021/12/06 07:01:18;;;;;;;17.08;10.60;;;;;;;6.30;95.66;94106.81;5100293;28;20193;-68
2021/12/06 07:03:45;;;;;;;16.95;11.60;;;;;;;6.22;96.86;94107.03;5101690;28;20793;-69
2021/12/06 07:06:11;;;;;;;21.10;11.93;;;;;;;6.10;97.60;94093.16;5101132;28;20277;-69
2021/12/06 07:08:38;;;;;;;18.33;11.80;;;;;;;6.14;98.18;94094.69;5100495;28;20297;-70
2021/12/06 07:11:07;;;;;;;18.23;12.30;;;;;;;6.25;97.66;94085.94;5100461;28;21275;-68
2021/12/06 07:13:37;;;;;;;20.08;10.48;;;;;;;6.31;96.91;94086.56;5101685;28;20193;-68
2021/12/06 07:16:06;;;;;;;15.52;10.10;;;;;;;6.30;96.94;94096.72;5100052;28;20292;-68
2021/12/06 07:18:33;;;;;;;16.40;10.07;;;;;;;6.44;96.51;94087.81;5099039;28;20262;-68
2021/12/06 07:21:01;;;;;;;13.70;9.23;;;;;;;6.79;95.10;94074.00;5101259;28;20213;-69
2021/12/06 07:23:27;;;;;;;14.13;9.40;;;;;;;6.66;94.18;94072.78;5100044;28;20200;-69
2021/12/06 07:25:54;;;;;;;10.23;7.95;;;;;;;6.44;94.49;94065.09;5101168;28;20706;-68
2021/12/06 07:28:23;;;;;;;14.65;8.95;;;;;;;6.51;94.46;94078.34;5099751;27;20193;-69
2021/12/06 07:30:50;;;;;;;11.95;9.05;;;;;;;6.51;94.86;94082.56;5101233;28;20227;-69
2021/12/06 07:33:17;;;;;;;13.60;8.85;;;;;;;6.56;93.82;94089.13;5100627;28;20215;-68
2021/12/06 07:35:44;;;;;;;12.02;8.95;;;;;;;6.59;94.14;94091.53;5101487;28;20281;-70
2021/12/06 07:38:12;;;;;;;10.43;8.55;;;;;;;6.54;93.79;94090.88;5100951;28;20231;-69
2021/12/06 07:40:39;;;;;;;11.35;7.80;;;;;;;6.51;93.99;94077.53;5100110;28;20233;-70
2021/12/06 07:43:06;;;;;;;11.75;6.97;;;;;;;6.50;93.86;94096.88;5101024;28;20212;-70
2021/12/06 07:45:35;;;;;;;11.43;7.95;;;;;;;6.37;94.52;94098.19;5100545;28;20225;-68
2021/12/06 07:48:02;;;;;;;12.25;7.35;;;;;;;6.38;94.05;94098.13;5100977;28;20703;-69
2021/12/06 07:50:29;;;;;;;15.50;8.68;;;;;;;6.31;94.64;94111.81;5099804;28;20389;-71
2021/12/06 07:52:56;;;;;;;13.90;8.98;;;;;;;6.18;95.98;94107.22;5101177;28;20201;-69
2021/12/06 07:55:30;;;;;;;13.52;8.25;;;;;;;6.05;95.60;94091.63;5099220;28;20201;-70
2021/12/06 07:57:58;;;;;;;9.43;7.80;;;;;;;6.13;96.31;94087.19;5100450;28;20216;-69
2021/12/06 08:00:27;;;;;;;12.02;8.32;;;;;;;6.11;97.17;94084.72;5099353;28;20203;-69
2021/12/06 08:02:57;;;;;;;13.13;8.02;;;;;;;6.29;96.28;94068.13;5100792;28;20201;-70
2021/12/06 08:05:34;;;;;;;12.45;8.70;;;;;;;6.31;96.20;94066.41;5099500;28;20229;-70
2021/12/06 08:08:04;;;;;;;12.65;8.95;;;;;;;6.43;96.66;94065.19;5100186;28;20228;-70
2021/12/06 08:10:31;;;;;;;14.18;9.57;;;;;;;6.51;96.43;94083.38;5099776;28;20200;-69
2021/12/06 08:12:58;;;;;;;12.20;8.13;;;;;;;6.50;96.58;94074.16;5100553;28;20212;-70
2021/12/06 08:15:25;;;;;;;11.93;8.82;;;;;;;6.44;96.47;94092.03;5100188;28;20613;-70
2021/12/06 08:17:52;;;;;;;13.80;8.90;;;;;;;6.18;97.30;94099.66;5099325;28;20197;-69
2021/12/06 08:20:22;;;;;;;14.52;10.05;;;;;;;6.37;97.67;94095.66;5100764;28;20197;-69
2021/12/06 08:22:49;;;;;;;13.82;8.95;;;;;;;6.27;97.53;94079.16;5099222;28;20197;-70
2021/12/06 08:25:17;;;;;;;15.18;9.10;;;;;;;6.10;98.16;94078.00;5100683;28;20237;-70
2021/12/06 08:27:45;;;;;;;11.65;8.82;;;;;;;6.05;99.09;94079.84;5099271;28;20204;-70
2021/12/06 08:30:13;;;;;;;11.45;8.15;;;;;;;6.21;98.79;94079.34;5098742;28;20272;-69
2021/12/06 08:32:41;;;;;;;13.43;9.27;;;;;;;6.24;99.45;94086.81;5099125;28;20189;-70
2021/12/06 08:35:09;;;;;;;12.95;9.35;;;;;;;6.39;97.99;94069.50;5100040;28;20206;-70
2021/12/06 08:37:37;;;;;;;12.13;8.60;;;;;;;6.90;95.76;94070.28;5098928;28;20224;-70
2021/12/06 08:40:06;;;;;;;12.07;8.45;;;;;;;7.32;94.47;94072.97;5098933;28;20200;-72
2021/12/06 08:42:33;;;;;;;9.27;7.65;;;;;;;8.05;90.25;94068.44;5100024;28;20659;-70
2021/12/06 08:45:00;;;;;;;13.75;7.97;;;;;;;8.39;87.52;94067.97;5100003;28;20739;-70
2021/12/06 08:47:27;;;;;;;10.90;8.05;;;;;;;8.25;87.57;94059.22;5098537;28;20213;-70
2021/12/06 08:49:54;;;;;;;16.02;9.18;;;;;;;8.27;88.13;94060.81;5099927;28;20215;-70
2021/12/06 08:52:20;;;;;;;13.75;8.30;;;;;;;8.01;86.81;94068.63;5099400;28;20193;-70
2021/12/06 08:54:49;;;;;;;13.93;9.20;;;;;;;8.05;86.88;94060.03;5100318;28;20265;-69
2021/12/06 08:57:16;;;;;;;13.00;7.75;;;;;;;8.02;87.18;94063.50;5099083;28;20204;-69
2021/12/06 08:59:43;;;;;;;11.63;7.97;;;;;;;8.03;86.28;94075.28;5099782;28;20595;-70
2021/12/06 09:02:10;;;;;;;13.05;8.32;;;;;;;7.74;87.79;94070.53;5099732;28;21108;-69
2021/12/06 09:04:39;;;;;;;8.93;7.72;;;;;;;7.65;89.25;94053.19;5098761;28;20644;-69
2021/12/06 09:07:11;;;;;;;10.65;8.27;;;;;;;7.93;87.73;94056.28;5099908;28;20192;-69
2021/12/06 09:09:45;;;;;;;104.60;45.78;;;;;;;8.37;87.01;94056.25;5098875;28;20221;-74
2021/12/06 09:12:16;;;;;;;28.90;17.98;;;;;;;8.82;85.60;94066.97;5100391;28;20674;-75
2021/12/06 09:14:43;;;;;;;13.38;9.75;;;;;;;8.93;84.13;94050.47;5098443;28;20284;-70
2021/12/06 09:17:11;;;;;;;12.82;9.05;;;;;;;9.28;83.21;94048.94;5099865;28;20205;-70
2021/12/06 09:19:38;;;;;;;9.45;7.43;;;;;;;9.67;81.94;94048.84;5099782;28;20209;-70
2021/12/06 09:22:05;;;;;;;13.07;8.88;;;;;;;10.00;79.93;94047.28;5098609;28;20261;-70
2021/12/06 09:24:32;;;;;;;10.10;8.30;;;;;;;9.81;78.68;94043.97;5099769;28;20197;-69
2021/12/06 09:27:00;;;;;;;10.40;8.80;;;;;;;9.83;79.04;94029.50;5099718;28;20200;-70
2021/12/06 09:29:29;;;;;;;12.85;8.85;;;;;;;9.40;80.47;94023.06;5098029;28;20215;-70
2021/12/06 09:31:59;;;;;;;11.23;8.40;;;;;;;9.28;81.29;94038.81;5099634;28;20223;-70
2021/12/06 09:34:27;;;;;;;16.58;9.27;;;;;;;8.95;82.08;94043.63;5098108;28;20755;-70
2021/12/06 09:36:54;;;;;;;13.75;10.70;;;;;;;9.03;83.08;94055.09;5099714;28;20209;-69
2021/12/06 09:39:21;;;;;;;10.93;8.20;;;;;;;9.08;81.84;94040.53;5097462;28;20248;-70
2021/12/06 09:41:48;;;;;;;12.88;7.45;;;;;;;9.12;81.76;94036.97;5100699;28;20208;-69
2021/12/06 09:44:15;;;;;;;10.23;7.72;;;;;;;8.81;82.60;94027.34;5103404;28;20290;-69
2021/12/06 09:46:44;;;;;;;8.25;6.43;;;;;;;8.78;81.79;94035.06;5102379;28;20282;-73
2021/12/06 09:49:14;;;;;;;14.38;7.53;;;;;;;8.67;81.98;94029.63;5102385;28;20216;-73
2021/12/06 09:51:44;;;;;;;7.55;6.00;;;;;;;8.72;82.06;94031.97;5103391;28;20643;-74
2021/12/06 09:54:13;;;;;;;10.60;6.88;;;;;;;8.57;82.30;94013.19;5101829;28;20193;-72
2021/12/06 09:56:43;;;;;;;9.43;7.22;;;;;;;8.48;82.75;94018.63;5102362;28;20201;-72
2021/12/06 09:59:14;;;;;;;8.52;6.50;;;;;;;8.39;82.42;93993.72;5103120;28;20205;-73
2021/12/06 10:01:47;;;;;;;10.95;7.50;;;;;;;8.69;82.35;94005.06;5101823;28;21019;-72
2021/12/06 10:04:15;;;;;;;12.15;8.25;;;;;;;8.80;82.36;93980.09;5103071;28;20201;-73
2021/12/06 10:06:44;;;;;;;10.43;7.50;;;;;;;9.06;80.41;93993.31;5101310;28;20319;-72
2021/12/06 10:09:12;;;;;;;14.60;8.45;;;;;;;8.83;81.81;93974.06;5102193;28;20278;-72
2021/12/06 10:11:40;;;;;;;9.98;7.70;;;;;;;8.60;82.02;93964.97;5102795;28;20201;-72
2021/12/06 10:14:07;;;;;;;10.43;7.13;;;;;;;8.70;82.23;93973.78;5101979;28;20205;-72
2021/12/06 10:16:34;;;;;;;9.68;7.60;;;;;;;8.71;81.79;93980.50;5103122;28;20196;-72
2021/12/06 10:19:05;;;;;;;14.95;7.28;;;;;;;8.76;82.15;93973.53;5102188;28;20691;-72
2021/12/06 10:21:32;;;;;;;9.82;6.82;;;;;;;8.95;81.54;93976.06;5102104;27;20197;-72
2021/12/06 10:24:00;;;;;;;10.00;7.72;;;;;;;9.01;81.82;93962.28;5103085;28;20197;-72
2021/12/06 10:26:30;;;;;;;10.73;9.00;;;;;;;8.89;82.93;93947.66;5101548;28;20233;-73
2021/12/06 10:29:00;;;;;;;12.38;8.75;;;;;;;8.88;83.68;93940.94;5102040;28;20205;-73
2021/12/06 10:31:27;;;;;;;13.57;7.68;;;;;;;8.82;83.97;93945.38;5101306;28;20254;-71
2021/12/06 10:33:55;;;;;;;14.35;8.13;;;;;;;8.79;84.66;93927.78;5102517;28;20201;-68
2021/12/06 10:36:26;;;;;;;10.65;8.45;;;;;;;8.78;84.54;93926.16;5100877;28;20205;-71
2021/12/06 10:39:00;;;;;;;12.18;8.82;;;;;;;8.92;84.56;93924.69;5100864;28;20289;-70
2021/12/06 10:41:29;;;;;;;11.40;8.45;;;;;;;9.12;83.61;93934.75;5102154;28;20259;-70
2021/12/06 10:43:59;;;;;;;13.70;9.18;;;;;;;9.21;83.42;93934.31;5100988;28;20205;-69
2021/12/06 10:46:27;;;;;;;15.40;9.55;;;;;;;9.20;84.02;93930.97;5100684;28;20228;-69
2021/12/06 10:48:57;;;;;;;9.85;8.27;;;;;;;9.25;83.15;93923.16;5101880;28;20250;-70
2021/12/06 10:51:27;;;;;;;13.93;9.07;;;;;;;9.44;82.73;93936.59;5102152;28;20205;-71
2021/12/06 10:54:00;;;;;;;12.48;8.65;;;;;;;9.60;82.41;93925.75;5100737;28;20202;-71
2021/12/06 10:56:38;;;;;;;14.02;8.88;;;;;;;9.37;82.57;93934.44;5100730;28;20207;-71
2021/12/06 10:59:10;;;;;;;9.43;7.78;;;;;;;9.33;83.52;93923.63;5100455;28;20204;-71
2021/12/06 11:01:37;;;;;;;14.43;9.27;;;;;;;9.35;83.67;93942.13;5102061;28;20209;-71
2021/12/06 11:04:07;;;;;;;10.93;8.57;;;;;;;9.49;83.35;93939.75;5100741;28;20692;-69
2021/12/06 11:06:42;;;;;;;11.32;7.70;;;;;;;9.67;82.58;93937.22;5106602;28;20224;-70
2021/12/06 11:09:09;;;;;;;12.40;7.30;;;;;;;9.61;81.18;93937.53;5111478;28;20212;-71
2021/12/06 11:11:40;;;;;;;10.98;7.93;;;;;;;9.47;81.44;93936.47;5113091;28;20185;-70
2021/12/06 11:14:09;;;;;;;8.38;7.57;;;;;;;9.49;81.66;93942.28;5113148;27;20224;-71
2021/12/06 11:16:38;;;;;;;12.43;8.60;;;;;;;9.39;82.64;93947.88;5112764;28;20201;-70
2021/12/06 11:19:08;;;;;;;10.93;8.45;;;;;;;9.31;82.87;93955.84;5112774;28;20196;-70
2021/12/06 11:21:41;;;;;;;13.13;9.68;;;;;;;9.34;83.02;93950.63;5112320;28;20185;-72
2021/12/06 11:24:23;;;;;;;11.63;9.15;;;;;;;9.46;82.63;93934.81;5112079;28;20315;-68
2021/12/06 11:26:54;;;;;;;12.32;8.82;;;;;;;9.47;83.62;93931.41;5112858;28;20246;-68
2021/12/06 11:29:25;;;;;;;13.38;9.80;;;;;;;9.39;82.96;93930.97;5113342;28;20273;-69
2021/12/06 11:31:57;;;;;;;12.60;9.02;;;;;;;9.46;83.07;93919.59;5112120;28;20699;-68
2021/12/06 11:34:27;;;;;;;14.18;9.73;;;;;;;9.41;83.54;93920.72;5112303;28;20238;-67
2021/12/06 11:36:56;;;;;;;14.60;9.68;;;;;;;9.47;83.75;93917.91;5112580;28;20648;-69
2021/12/06 11:39:24;;;;;;;12.23;9.80;;;;;;;9.54;83.46;93911.66;5112825;28;20228;-70
2021/12/06 11:41:54;;;;;;;16.45;10.50;;;;;;;9.52;83.23;93916.78;5112596;28;20566;-71